sensor_id;sensor_type;location;lat;lon;timestamp;pressure;altitude;pressure_sealevel;temperature;humidity
41706;BME280;27385;51.096;17.190;2023-08-21T00:02:23;100759.52;;;22.45;85.62
41706;BME280;27385;51.096;17.190;2023-08-21T00:04:57;100756.17;;;22.44;85.48
41706;BME280;27385;51.096;17.190;2023-08-21T00:07:28;100757.27;;;22.43;85.63
41706;BME280;27385;51.096;17.190;2023-08-21T00:09:59;100758.36;;;22.42;85.82
41706;BME280;27385;51.096;17.190;2023-08-21T00:12:29;100755.55;;;22.38;85.83
41706;BME280;27385;51.096;17.190;2023-08-21T00:15:00;100752.09;;;22.36;85.57
41706;BME280;27385;51.096;17.190;2023-08-21T00:17:31;100750.02;;;22.37;85.58
41706;BME280;27385;51.096;17.190;2023-08-21T00:20:02;100752.88;;;22.33;86.29
41706;BME280;27385;51.096;17.190;2023-08-21T00:22:34;100757.02;;;22.26;86.75
41706;BME280;27385;51.096;17.190;2023-08-21T00:25:05;100758.96;;;22.15;86.83
41706;BME280;27385;51.096;17.190;2023-08-21T00:27:36;100754.37;;;22.01;87.12
41706;BME280;27385;51.096;17.190;2023-08-21T00:30:10;100750.48;;;21.93;87.55
41706;BME280;27385;51.096;17.190;2023-08-21T00:32:44;100750.19;;;21.88;87.79
41706;BME280;27385;51.096;17.190;2023-08-21T00:35:15;100749.71;;;21.87;87.81
41706;BME280;27385;51.096;17.190;2023-08-21T00:37:46;100747.05;;;21.86;87.78
41706;BME280;27385;51.096;17.190;2023-08-21T00:40:17;100749.45;;;21.85;87.74
41706;BME280;27385;51.096;17.190;2023-08-21T00:42:48;100754.73;;;21.84;87.87
41706;BME280;27385;51.096;17.190;2023-08-21T00:45:19;100751.73;;;21.81;87.92
41706;BME280;27385;51.096;17.190;2023-08-21T00:47:50;100752.28;;;21.79;88.05
41706;BME280;27385;51.096;17.190;2023-08-21T00:50:22;100759.05;;;21.76;88.18
41706;BME280;27385;51.096;17.190;2023-08-21T00:52:52;100751.25;;;21.75;88.17
41706;BME280;27385;51.096;17.190;2023-08-21T00:55:24;100753.38;;;21.75;88.18
41706;BME280;27385;51.096;17.190;2023-08-21T00:57:55;100750.61;;;21.77;88.15
41706;BME280;27385;51.096;17.190;2023-08-21T01:00:26;100745.84;;;21.78;88.53
41706;BME280;27385;51.096;17.190;2023-08-21T01:02:57;100740.70;;;21.80;88.28
41706;BME280;27385;51.096;17.190;2023-08-21T01:05:28;100734.71;;;21.83;88.30
41706;BME280;27385;51.096;17.190;2023-08-21T01:08:03;100734.41;;;21.85;88.65
41706;BME280;27385;51.096;17.190;2023-08-21T01:10:46;100728.23;;;21.87;88.33
41706;BME280;27385;51.096;17.190;2023-08-21T01:13:26;100725.69;;;21.90;88.54
41706;BME280;27385;51.096;17.190;2023-08-21T01:16:02;100728.18;;;21.92;88.91
41706;BME280;27385;51.096;17.190;2023-08-21T01:18:35;100723.57;;;21.92;89.21
41706;BME280;27385;51.096;17.190;2023-08-21T01:21:06;100723.33;;;21.92;89.31
41706;BME280;27385;51.096;17.190;2023-08-21T01:23:37;100723.14;;;21.91;89.54
41706;BME280;27385;51.096;17.190;2023-08-21T01:26:09;100720.92;;;21.91;89.68
41706;BME280;27385;51.096;17.190;2023-08-21T01:28:39;100721.98;;;21.90;89.88
41706;BME280;27385;51.096;17.190;2023-08-21T01:31:14;100724.95;;;21.88;90.04
41706;BME280;27385;51.096;17.190;2023-08-21T01:33:50;100722.20;;;21.86;89.81
41706;BME280;27385;51.096;17.190;2023-08-21T01:36:22;100728.64;;;21.87;90.08
41706;BME280;27385;51.096;17.190;2023-08-21T01:38:53;100738.96;;;21.85;90.20
41706;BME280;27385;51.096;17.190;2023-08-21T01:41:26;100744.59;;;21.83;90.46
41706;BME280;27385;51.096;17.190;2023-08-21T01:43:56;100742.31;;;21.82;90.72
41706;BME280;27385;51.096;17.190;2023-08-21T01:46:27;100732.16;;;21.80;91.02
41706;BME280;27385;51.096;17.190;2023-08-21T01:48:58;100734.36;;;21.81;91.35
41706;BME280;27385;51.096;17.190;2023-08-21T01:51:29;100738.48;;;21.80;91.52
41706;BME280;27385;51.096;17.190;2023-08-21T01:54:00;100730.33;;;21.78;91.54
41706;BME280;27385;51.096;17.190;2023-08-21T01:56:31;100727.58;;;21.79;91.70
41706;BME280;27385;51.096;17.190;2023-08-21T01:59:02;100731.80;;;21.80;91.99
41706;BME280;27385;51.096;17.190;2023-08-21T02:01:32;100737.86;;;21.76;91.96
41706;BME280;27385;51.096;17.190;2023-08-21T02:04:04;100745.73;;;21.70;92.36
41706;BME280;27385;51.096;17.190;2023-08-21T02:06:34;100758.24;;;21.64;92.57
41706;BME280;27385;51.096;17.190;2023-08-21T02:09:05;100763.06;;;21.57;92.80
41706;BME280;27385;51.096;17.190;2023-08-21T02:11:36;100765.14;;;21.53;93.03
41706;BME280;27385;51.096;17.190;2023-08-21T02:14:07;100762.18;;;21.51;93.45
41706;BME280;27385;51.096;17.190;2023-08-21T02:16:38;100750.52;;;21.51;93.46
41706;BME280;27385;51.096;17.190;2023-08-21T02:19:09;100750.38;;;21.53;93.83
41706;BME280;27385;51.096;17.190;2023-08-21T02:21:39;100756.35;;;21.54;94.06
41706;BME280;27385;51.096;17.190;2023-08-21T02:24:10;100760.90;;;21.57;94.12
41706;BME280;27385;51.096;17.190;2023-08-21T02:26:41;100765.48;;;21.60;94.34
41706;BME280;27385;51.096;17.190;2023-08-21T02:29:14;100772.62;;;21.63;94.53
41706;BME280;27385;51.096;17.190;2023-08-21T02:31:45;100776.96;;;21.62;94.91
41706;BME280;27385;51.096;17.190;2023-08-21T02:34:16;100780.98;;;21.60;95.35
41706;BME280;27385;51.096;17.190;2023-08-21T02:36:46;100781.80;;;21.57;95.75
41706;BME280;27385;51.096;17.190;2023-08-21T02:39:17;100788.46;;;21.55;96.27
41706;BME280;27385;51.096;17.190;2023-08-21T02:41:48;100792.21;;;21.52;96.53
41706;BME280;27385;51.096;17.190;2023-08-21T02:44:19;100798.58;;;21.53;96.38
41706;BME280;27385;51.096;17.190;2023-08-21T02:46:50;100802.41;;;21.57;96.83
41706;BME280;27385;51.096;17.190;2023-08-21T02:49:20;100808.71;;;21.60;98.03
41706;BME280;27385;51.096;17.190;2023-08-21T02:51:52;100814.26;;;21.63;98.54
41706;BME280;27385;51.096;17.190;2023-08-21T02:54:23;100826.52;;;21.65;99.57
41706;BME280;27385;51.096;17.190;2023-08-21T02:56:53;100841.95;;;21.65;99.97
41706;BME280;27385;51.096;17.190;2023-08-21T02:59:24;100851.66;;;21.66;99.86
41706;BME280;27385;51.096;17.190;2023-08-21T03:01:55;100894.28;;;21.66;100.00
41706;BME280;27385;51.096;17.190;2023-08-21T03:04:25;100901.80;;;21.64;100.00
41706;BME280;27385;51.096;17.190;2023-08-21T03:06:56;100888.54;;;21.64;100.00
41706;BME280;27385;51.096;17.190;2023-08-21T03:09:27;100882.56;;;21.65;100.00
41706;BME280;27385;51.096;17.190;2023-08-21T03:11:58;100894.86;;;21.66;100.00
41706;BME280;27385;51.096;17.190;2023-08-21T03:14:29;100894.23;;;21.65;100.00
41706;BME280;27385;51.096;17.190;2023-08-21T03:17:01;100851.94;;;21.55;100.00
41706;BME280;27385;51.096;17.190;2023-08-21T03:19:33;100834.55;;;21.45;100.00
41706;BME280;27385;51.096;17.190;2023-08-21T03:22:04;100823.86;;;21.41;100.00
41706;BME280;27385;51.096;17.190;2023-08-21T03:24:35;100810.10;;;21.40;100.00
41706;BME280;27385;51.096;17.190;2023-08-21T03:27:06;100791.72;;;21.39;100.00
41706;BME280;27385;51.096;17.190;2023-08-21T03:29:37;100794.55;;;21.40;100.00
41706;BME280;27385;51.096;17.190;2023-08-21T03:32:09;100790.38;;;21.43;100.00
41706;BME280;27385;51.096;17.190;2023-08-21T03:34:40;100783.10;;;21.45;100.00
41706;BME280;27385;51.096;17.190;2023-08-21T03:37:11;100780.13;;;21.47;100.00
41706;BME280;27385;51.096;17.190;2023-08-21T03:39:42;100783.61;;;21.49;100.00
41706;BME280;27385;51.096;17.190;2023-08-21T03:42:13;100786.41;;;21.50;100.00
41706;BME280;27385;51.096;17.190;2023-08-21T03:44:44;100786.14;;;21.52;100.00
41706;BME280;27385;51.096;17.190;2023-08-21T03:47:17;100791.73;;;21.53;100.00
41706;BME280;27385;51.096;17.190;2023-08-21T03:49:49;100797.80;;;21.55;100.00
41706;BME280;27385;51.096;17.190;2023-08-21T03:52:20;100805.23;;;21.56;100.00
41706;BME280;27385;51.096;17.190;2023-08-21T03:54:51;100812.80;;;21.55;100.00
41706;BME280;27385;51.096;17.190;2023-08-21T03:57:22;100815.61;;;21.52;100.00
41706;BME280;27385;51.096;17.190;2023-08-21T03:59:55;100816.06;;;21.50;100.00
41706;BME280;27385;51.096;17.190;2023-08-21T04:02:26;100819.94;;;21.50;100.00
41706;BME280;27385;51.096;17.190;2023-08-21T04:04:57;100826.24;;;21.51;100.00
41706;BME280;27385;51.096;17.190;2023-08-21T04:07:27;100832.34;;;21.51;100.00
41706;BME280;27385;51.096;17.190;2023-08-21T04:09:58;100821.55;;;21.49;100.00
41706;BME280;27385;51.096;17.190;2023-08-21T04:12:30;100822.04;;;21.49;100.00
41706;BME280;27385;51.096;17.190;2023-08-21T04:15:00;100823.13;;;21.48;100.00
41706;BME280;27385;51.096;17.190;2023-08-21T04:17:31;100819.86;;;21.46;100.00
41706;BME280;27385;51.096;17.190;2023-08-21T04:20:02;100822.73;;;21.46;100.00
41706;BME280;27385;51.096;17.190;2023-08-21T04:22:33;100826.27;;;21.46;100.00
41706;BME280;27385;51.096;17.190;2023-08-21T04:25:05;100825.30;;;21.45;100.00
41706;BME280;27385;51.096;17.190;2023-08-21T04:27:36;100816.29;;;21.43;100.00
41706;BME280;27385;51.096;17.190;2023-08-21T04:30:08;100816.70;;;21.43;100.00
41706;BME280;27385;51.096;17.190;2023-08-21T04:32:40;100827.29;;;21.43;100.00
41706;BME280;27385;51.096;17.190;2023-08-21T04:35:11;100842.08;;;21.42;100.00
41706;BME280;27385;51.096;17.190;2023-08-21T04:37:46;100855.64;;;21.40;100.00
41706;BME280;27385;51.096;17.190;2023-08-21T04:40:17;100858.81;;;21.39;100.00
41706;BME280;27385;51.096;17.190;2023-08-21T04:42:50;100861.83;;;21.38;100.00
41706;BME280;27385;51.096;17.190;2023-08-21T04:45:21;100857.52;;;21.36;100.00
41706;BME280;27385;51.096;17.190;2023-08-21T04:47:51;100847.75;;;21.33;100.00
41706;BME280;27385;51.096;17.190;2023-08-21T04:50:25;100847.10;;;21.28;100.00
41706;BME280;27385;51.096;17.190;2023-08-21T04:52:56;100845.89;;;21.22;100.00
41706;BME280;27385;51.096;17.190;2023-08-21T04:55:27;100849.33;;;21.18;100.00
41706;BME280;27385;51.096;17.190;2023-08-21T04:57:58;100850.20;;;21.13;100.00
41706;BME280;27385;51.096;17.190;2023-08-21T05:00:29;100830.77;;;21.08;100.00
41706;BME280;27385;51.096;17.190;2023-08-21T05:02:59;100823.92;;;21.04;100.00
41706;BME280;27385;51.096;17.190;2023-08-21T05:05:30;100827.91;;;21.02;100.00
41706;BME280;27385;51.096;17.190;2023-08-21T05:08:01;100830.05;;;20.99;100.00
41706;BME280;27385;51.096;17.190;2023-08-21T05:13:05;100850.10;;;20.89;100.00
41706;BME280;27385;51.096;17.190;2023-08-21T05:15:38;100861.21;;;20.89;100.00
41706;BME280;27385;51.096;17.190;2023-08-21T05:18:09;100864.52;;;20.84;100.00
41706;BME280;27385;51.096;17.190;2023-08-21T05:20:41;100864.46;;;20.85;100.00
41706;BME280;27385;51.096;17.190;2023-08-21T05:23:12;100865.71;;;20.83;100.00
41706;BME280;27385;51.096;17.190;2023-08-21T05:25:44;100872.02;;;20.83;100.00
41706;BME280;27385;51.096;17.190;2023-08-21T05:28:16;100866.67;;;20.81;100.00
41706;BME280;27385;51.096;17.190;2023-08-21T05:30:49;100865.38;;;20.73;100.00
41706;BME280;27385;51.096;17.190;2023-08-21T05:33:19;100870.67;;;20.66;100.00
41706;BME280;27385;51.096;17.190;2023-08-21T05:35:50;100869.11;;;20.64;100.00
41706;BME280;27385;51.096;17.190;2023-08-21T05:38:21;100874.67;;;20.60;100.00
41706;BME280;27385;51.096;17.190;2023-08-21T05:40:52;100879.73;;;20.60;100.00
41706;BME280;27385;51.096;17.190;2023-08-21T05:43:23;100878.31;;;20.58;100.00
41706;BME280;27385;51.096;17.190;2023-08-21T05:45:54;100876.94;;;20.59;100.00
41706;BME280;27385;51.096;17.190;2023-08-21T05:48:25;100875.17;;;20.61;100.00
41706;BME280;27385;51.096;17.190;2023-08-21T05:50:55;100873.79;;;20.61;100.00
41706;BME280;27385;51.096;17.190;2023-08-21T05:53:26;100871.94;;;20.60;100.00
41706;BME280;27385;51.096;17.190;2023-08-21T05:55:57;100879.86;;;20.57;100.00
41706;BME280;27385;51.096;17.190;2023-08-21T05:58:28;100877.38;;;20.58;100.00
41706;BME280;27385;51.096;17.190;2023-08-21T06:01:06;100870.14;;;20.59;100.00
41706;BME280;27385;51.096;17.190;2023-08-21T06:03:37;100866.88;;;20.60;100.00
41706;BME280;27385;51.096;17.190;2023-08-21T06:06:08;100878.70;;;20.60;99.95
41706;BME280;27385;51.096;17.190;2023-08-21T06:08:39;100892.32;;;20.59;100.00
41706;BME280;27385;51.096;17.190;2023-08-21T06:11:10;100888.06;;;20.62;100.00
41706;BME280;27385;51.096;17.190;2023-08-21T06:13:41;100883.06;;;20.66;100.00
41706;BME280;27385;51.096;17.190;2023-08-21T06:16:12;100886.81;;;20.67;100.00
41706;BME280;27385;51.096;17.190;2023-08-21T06:18:44;100884.45;;;20.70;100.00
41706;BME280;27385;51.096;17.190;2023-08-21T06:21:15;100880.80;;;20.74;100.00
41706;BME280;27385;51.096;17.190;2023-08-21T06:23:46;100876.80;;;20.75;99.93
41706;BME280;27385;51.096;17.190;2023-08-21T06:26:17;100878.66;;;20.80;100.00
41706;BME280;27385;51.096;17.190;2023-08-21T06:28:48;100879.55;;;20.83;100.00
41706;BME280;27385;51.096;17.190;2023-08-21T06:31:19;100884.34;;;20.87;100.00
41706;BME280;27385;51.096;17.190;2023-08-21T06:33:50;100888.57;;;20.91;99.99
41706;BME280;27385;51.096;17.190;2023-08-21T06:36:21;100892.52;;;20.97;100.00
41706;BME280;27385;51.096;17.190;2023-08-21T06:38:52;100896.63;;;21.04;100.00
41706;BME280;27385;51.096;17.190;2023-08-21T06:41:23;100908.91;;;21.12;100.00
41706;BME280;27385;51.096;17.190;2023-08-21T06:43:55;100914.70;;;21.17;99.82
41706;BME280;27385;51.096;17.190;2023-08-21T06:46:26;100917.87;;;21.19;99.80
41706;BME280;27385;51.096;17.190;2023-08-21T06:48:57;100918.92;;;21.21;99.25
41706;BME280;27385;51.096;17.190;2023-08-21T06:51:28;100918.53;;;21.19;98.78
41706;BME280;27385;51.096;17.190;2023-08-21T06:53:59;100916.38;;;21.18;98.95
41706;BME280;27385;51.096;17.190;2023-08-21T06:56:31;100916.80;;;21.22;99.66
41706;BME280;27385;51.096;17.190;2023-08-21T06:59:02;100915.10;;;21.25;99.79
41706;BME280;27385;51.096;17.190;2023-08-21T07:01:33;100915.98;;;21.28;99.66
41706;BME280;27385;51.096;17.190;2023-08-21T07:04:04;100914.38;;;21.32;99.56
41706;BME280;27385;51.096;17.190;2023-08-21T07:06:35;100910.22;;;21.34;99.34
41706;BME280;27385;51.096;17.190;2023-08-21T07:09:08;100912.86;;;21.37;99.45
41706;BME280;27385;51.096;17.190;2023-08-21T07:11:39;100913.73;;;21.41;99.00
41706;BME280;27385;51.096;17.190;2023-08-21T07:14:10;100920.70;;;21.41;98.71
41706;BME280;27385;51.096;17.190;2023-08-21T07:16:43;100934.98;;;21.43;98.22
41706;BME280;27385;51.096;17.190;2023-08-21T07:19:14;100940.77;;;21.46;97.60
41706;BME280;27385;51.096;17.190;2023-08-21T07:22:00;100945.98;;;21.53;98.08
41706;BME280;27385;51.096;17.190;2023-08-21T07:24:34;100950.63;;;21.58;96.98
41706;BME280;27385;51.096;17.190;2023-08-21T07:27:05;100948.54;;;21.62;96.49
41706;BME280;27385;51.096;17.190;2023-08-21T07:29:36;100944.16;;;21.67;96.23
41706;BME280;27385;51.096;17.190;2023-08-21T07:32:07;100946.67;;;21.73;95.60
41706;BME280;27385;51.096;17.190;2023-08-21T07:34:38;100945.89;;;21.73;94.13
41706;BME280;27385;51.096;17.190;2023-08-21T07:37:10;100953.04;;;21.71;94.17
41706;BME280;27385;51.096;17.190;2023-08-21T07:42:49;100964.57;;;21.78;94.29
41706;BME280;27385;51.096;17.190;2023-08-21T07:45:20;100958.75;;;21.82;93.89
41706;BME280;27385;51.096;17.190;2023-08-21T07:47:53;100962.56;;;21.87;94.02
41706;BME280;27385;51.096;17.190;2023-08-21T07:50:24;100958.14;;;21.92;94.06
41706;BME280;27385;51.096;17.190;2023-08-21T07:52:55;100956.63;;;21.96;93.55
41706;BME280;27385;51.096;17.190;2023-08-21T07:55:26;100953.33;;;21.98;92.82
41706;BME280;27385;51.096;17.190;2023-08-21T07:57:57;100954.47;;;22.01;92.14
41706;BME280;27385;51.096;17.190;2023-08-21T08:00:43;100954.41;;;22.08;92.06
41706;BME280;27385;51.096;17.190;2023-08-21T08:03:25;100946.86;;;22.16;91.93
41706;BME280;27385;51.096;17.190;2023-08-21T08:05:56;100951.42;;;22.25;91.65
41706;BME280;27385;51.096;17.190;2023-08-21T08:08:27;100954.64;;;22.34;91.08
41706;BME280;27385;51.096;17.190;2023-08-21T08:11:02;100956.93;;;22.41;90.22
41706;BME280;27385;51.096;17.190;2023-08-21T08:13:34;100957.58;;;22.45;90.10
41706;BME280;27385;51.096;17.190;2023-08-21T08:16:05;100955.68;;;22.50;89.99
41706;BME280;27385;51.096;17.190;2023-08-21T08:18:37;100950.30;;;22.56;90.58
41706;BME280;27385;51.096;17.190;2023-08-21T08:21:08;100945.16;;;22.64;90.56
41706;BME280;27385;51.096;17.190;2023-08-21T08:23:40;100943.05;;;22.71;90.66
41706;BME280;27385;51.096;17.190;2023-08-21T08:26:11;100950.80;;;22.77;90.19
41706;BME280;27385;51.096;17.190;2023-08-21T08:28:46;100949.52;;;22.81;89.91
41706;BME280;27385;51.096;17.190;2023-08-21T08:34:49;100950.27;;;22.86;89.13
41706;BME280;27385;51.096;17.190;2023-08-21T08:37:20;100942.98;;;22.90;88.39
41706;BME280;27385;51.096;17.190;2023-08-21T08:40:10;100937.20;;;22.94;87.80
41706;BME280;27385;51.096;17.190;2023-08-21T08:43:00;100938.50;;;23.01;87.08
41706;BME280;27385;51.096;17.190;2023-08-21T08:45:32;100935.27;;;23.07;86.59
41706;BME280;27385;51.096;17.190;2023-08-21T08:48:04;100931.42;;;23.13;86.70
41706;BME280;27385;51.096;17.190;2023-08-21T08:50:37;100928.38;;;23.19;85.67
41706;BME280;27385;51.096;17.190;2023-08-21T08:53:10;100928.61;;;23.23;84.82
41706;BME280;27385;51.096;17.190;2023-08-21T08:55:41;100931.97;;;23.28;84.04
41706;BME280;27385;51.096;17.190;2023-08-21T08:58:13;100933.69;;;23.33;83.50
41706;BME280;27385;51.096;17.190;2023-08-21T09:00:45;100938.24;;;23.38;83.23
41706;BME280;27385;51.096;17.190;2023-08-21T09:03:24;100935.04;;;23.47;82.92
41706;BME280;27385;51.096;17.190;2023-08-21T09:05:55;100936.80;;;23.57;82.22
41706;BME280;27385;51.096;17.190;2023-08-21T09:08:29;100935.09;;;23.65;81.91
41706;BME280;27385;51.096;17.190;2023-08-21T09:11:02;100938.30;;;23.74;80.94
41706;BME280;27385;51.096;17.190;2023-08-21T09:13:33;100933.98;;;23.83;80.74
41706;BME280;27385;51.096;17.190;2023-08-21T09:16:06;100927.23;;;23.89;79.47
41706;BME280;27385;51.096;17.190;2023-08-21T09:18:38;100932.48;;;23.93;78.85
41706;BME280;27385;51.096;17.190;2023-08-21T09:21:09;100930.39;;;24.00;79.05
41706;BME280;27385;51.096;17.190;2023-08-21T09:23:40;100933.52;;;24.10;78.22
41706;BME280;27385;51.096;17.190;2023-08-21T09:26:11;100932.81;;;24.14;77.18
41706;BME280;27385;51.096;17.190;2023-08-21T09:28:52;100935.23;;;24.19;76.74
41706;BME280;27385;51.096;17.190;2023-08-21T09:31:36;100932.64;;;24.25;76.37
41706;BME280;27385;51.096;17.190;2023-08-21T09:34:07;100935.04;;;24.34;76.87
41706;BME280;27385;51.096;17.190;2023-08-21T09:36:39;100928.63;;;24.43;75.90
41706;BME280;27385;51.096;17.190;2023-08-21T09:39:16;100930.16;;;24.49;76.16
41706;BME280;27385;51.096;17.190;2023-08-21T09:41:57;100924.52;;;24.56;76.11
41706;BME280;27385;51.096;17.190;2023-08-21T09:44:36;100930.70;;;24.58;74.82
41706;BME280;27385;51.096;17.190;2023-08-21T09:47:11;100934.00;;;24.59;75.36
41706;BME280;27385;51.096;17.190;2023-08-21T09:49:42;100932.48;;;24.61;74.90
41706;BME280;27385;51.096;17.190;2023-08-21T09:52:14;100928.80;;;24.61;73.77
41706;BME280;27385;51.096;17.190;2023-08-21T09:54:44;100923.20;;;24.67;73.33
41706;BME280;27385;51.096;17.190;2023-08-21T09:57:16;100923.31;;;24.72;72.17
41706;BME280;27385;51.096;17.190;2023-08-21T09:59:48;100915.86;;;24.77;71.76
41706;BME280;27385;51.096;17.190;2023-08-21T10:02:19;100918.86;;;24.81;70.75
41706;BME280;27385;51.096;17.190;2023-08-21T10:04:52;100913.45;;;24.80;70.16
41706;BME280;27385;51.096;17.190;2023-08-21T10:07:30;100912.44;;;24.83;70.41
41706;BME280;27385;51.096;17.190;2023-08-21T10:10:09;100905.23;;;24.90;70.42
41706;BME280;27385;51.096;17.190;2023-08-21T10:12:58;100904.16;;;24.98;70.27
41706;BME280;27385;51.096;17.190;2023-08-21T10:15:39;100901.00;;;25.05;68.33
41706;BME280;27385;51.096;17.190;2023-08-21T10:18:23;100904.86;;;25.09;68.05
41706;BME280;27385;51.096;17.190;2023-08-21T10:20:55;100905.65;;;25.17;68.63
41706;BME280;27385;51.096;17.190;2023-08-21T10:23:28;100905.19;;;25.24;67.75
41706;BME280;27385;51.096;17.190;2023-08-21T10:26:21;100902.23;;;25.29;67.66
41706;BME280;27385;51.096;17.190;2023-08-21T10:29:00;100900.69;;;25.35;66.74
41706;BME280;27385;51.096;17.190;2023-08-21T10:31:42;100902.27;;;25.38;66.54
41706;BME280;27385;51.096;17.190;2023-08-21T10:34:14;100904.75;;;25.43;66.19
41706;BME280;27385;51.096;17.190;2023-08-21T10:37:04;100906.41;;;25.51;66.02
41706;BME280;27385;51.096;17.190;2023-08-21T10:39:52;100912.08;;;25.51;65.16
41706;BME280;27385;51.096;17.190;2023-08-21T10:42:38;100911.23;;;25.47;64.57
41706;BME280;27385;51.096;17.190;2023-08-21T10:45:14;100909.69;;;25.42;63.76
41706;BME280;27385;51.096;17.190;2023-08-21T10:47:45;100906.77;;;25.40;63.84
41706;BME280;27385;51.096;17.190;2023-08-21T10:50:23;100904.19;;;25.45;64.56
41706;BME280;27385;51.096;17.190;2023-08-21T10:52:57;100910.17;;;25.48;62.93
41706;BME280;27385;51.096;17.190;2023-08-21T10:55:38;100910.91;;;25.51;63.55
41706;BME280;27385;51.096;17.190;2023-08-21T10:58:07;100910.41;;;25.56;63.46
41706;BME280;27385;51.096;17.190;2023-08-21T11:00:41;100912.23;;;25.59;63.33
41706;BME280;27385;51.096;17.190;2023-08-21T11:03:12;100907.53;;;25.61;63.32
41706;BME280;27385;51.096;17.190;2023-08-21T11:05:42;100910.28;;;25.65;63.05
41706;BME280;27385;51.096;17.190;2023-08-21T11:08:19;100908.77;;;25.68;62.59
41706;BME280;27385;51.096;17.190;2023-08-21T11:10:56;100908.77;;;25.66;62.46
41706;BME280;27385;51.096;17.190;2023-08-21T11:13:33;100907.12;;;25.62;62.75
41706;BME280;27385;51.096;17.190;2023-08-21T11:16:05;100912.71;;;25.58;62.61
41706;BME280;27385;51.096;17.190;2023-08-21T11:18:39;100914.11;;;25.53;62.68
41706;BME280;27385;51.096;17.190;2023-08-21T11:21:11;100910.36;;;25.51;63.12
41706;BME280;27385;51.096;17.190;2023-08-21T11:30:37;100898.52;;;25.57;63.76
41706;BME280;27385;51.096;17.190;2023-08-21T11:46:55;100871.96;;;25.61;63.40
41706;BME280;27385;51.096;17.190;2023-08-21T11:49:30;100871.09;;;25.64;63.40
41706;BME280;27385;51.096;17.190;2023-08-21T11:52:21;100874.34;;;25.64;63.58
41706;BME280;27385;51.096;17.190;2023-08-21T11:54:55;100882.02;;;25.66;63.41
41706;BME280;27385;51.096;17.190;2023-08-21T11:57:26;100875.29;;;25.67;63.53
41706;BME280;27385;51.096;17.190;2023-08-21T11:59:59;100873.81;;;25.70;63.43
41706;BME280;27385;51.096;17.190;2023-08-21T12:02:30;100869.53;;;25.73;63.63
41706;BME280;27385;51.096;17.190;2023-08-21T12:05:05;100871.83;;;25.76;63.82
41706;BME280;27385;51.096;17.190;2023-08-21T12:07:36;100871.57;;;25.79;63.85
41706;BME280;27385;51.096;17.190;2023-08-21T12:10:08;100872.91;;;25.84;63.48
41706;BME280;27385;51.096;17.190;2023-08-21T12:12:39;100875.13;;;25.90;63.31
41706;BME280;27385;51.096;17.190;2023-08-21T12:15:11;100867.77;;;25.90;62.78
41706;BME280;27385;51.096;17.190;2023-08-21T12:17:41;100861.73;;;25.93;63.37
41706;BME280;27385;51.096;17.190;2023-08-21T12:20:12;100860.98;;;25.94;63.03
41706;BME280;27385;51.096;17.190;2023-08-21T12:22:45;100860.52;;;25.94;62.90
41706;BME280;27385;51.096;17.190;2023-08-21T12:25:17;100863.52;;;25.95;62.40
41706;BME280;27385;51.096;17.190;2023-08-21T12:27:48;100863.18;;;25.95;61.92
41706;BME280;27385;51.096;17.190;2023-08-21T12:30:19;100861.48;;;25.95;61.67
41706;BME280;27385;51.096;17.190;2023-08-21T12:32:50;100855.97;;;25.96;61.82
41706;BME280;27385;51.096;17.190;2023-08-21T12:35:21;100854.10;;;25.97;62.09
41706;BME280;27385;51.096;17.190;2023-08-21T12:37:55;100854.52;;;26.00;62.37
41706;BME280;27385;51.096;17.190;2023-08-21T12:40:27;100848.91;;;26.04;62.52
41706;BME280;27385;51.096;17.190;2023-08-21T12:42:58;100846.73;;;26.08;61.95
41706;BME280;27385;51.096;17.190;2023-08-21T12:45:29;100843.29;;;26.09;61.70
41706;BME280;27385;51.096;17.190;2023-08-21T12:48:00;100840.42;;;26.11;61.64
41706;BME280;27385;51.096;17.190;2023-08-21T12:50:31;100837.45;;;26.11;61.44
41706;BME280;27385;51.096;17.190;2023-08-21T12:53:02;100832.88;;;26.16;61.83
41706;BME280;27385;51.096;17.190;2023-08-21T12:55:33;100833.77;;;26.19;62.13
41706;BME280;27385;51.096;17.190;2023-08-21T12:58:05;100832.05;;;26.22;61.45
41706;BME280;27385;51.096;17.190;2023-08-21T13:00:36;100829.80;;;26.23;61.03
41706;BME280;27385;51.096;17.190;2023-08-21T13:03:07;100825.10;;;26.25;61.28
41706;BME280;27385;51.096;17.190;2023-08-21T13:05:38;100825.33;;;26.27;61.08
41706;BME280;27385;51.096;17.190;2023-08-21T13:08:09;100824.25;;;26.29;61.57
41706;BME280;27385;51.096;17.190;2023-08-21T13:10:40;100826.19;;;26.35;61.57
41706;BME280;27385;51.096;17.190;2023-08-21T13:13:11;100825.27;;;26.37;61.34
41706;BME280;27385;51.096;17.190;2023-08-21T13:15:42;100822.66;;;26.38;61.93
41706;BME280;27385;51.096;17.190;2023-08-21T13:18:14;100824.41;;;26.43;61.57
41706;BME280;27385;51.096;17.190;2023-08-21T13:20:45;100824.37;;;26.46;61.26
41706;BME280;27385;51.096;17.190;2023-08-21T13:23:16;100819.29;;;26.44;60.68
41706;BME280;27385;51.096;17.190;2023-08-21T13:25:47;100819.73;;;26.41;61.11
41706;BME280;27385;51.096;17.190;2023-08-21T13:28:17;100818.80;;;26.43;61.63
41706;BME280;27385;51.096;17.190;2023-08-21T13:30:49;100813.86;;;26.49;61.95
41706;BME280;27385;51.096;17.190;2023-08-21T13:33:19;100817.67;;;26.54;61.82
41706;BME280;27385;51.096;17.190;2023-08-21T13:35:50;100815.08;;;26.61;62.00